createdAt,value
2023-02-25T00:01:14.552Z,10.14
2023-02-25T00:04:01.745Z,10.05
2023-02-25T00:07:02.778Z,10.08
2023-02-25T00:09:43.386Z,10.01
2023-02-25T00:12:10.346Z,10.05
2023-02-25T00:14:37.285Z,9.92
2023-02-25T00:17:24.782Z,9.72
2023-02-25T00:20:28.773Z,9.87
2023-02-25T00:23:09.388Z,9.72
2023-02-25T00:25:36.619Z,9.74
2023-02-25T00:28:06.311Z,9.80
2023-02-25T00:30:34.440Z,9.62
2023-02-25T00:33:02.080Z,9.89
2023-02-25T00:35:29.126Z,9.66
2023-02-25T00:38:04.031Z,9.93
2023-02-25T00:40:39.749Z,9.74
2023-02-25T00:43:07.746Z,9.57
2023-02-25T00:45:34.952Z,10.18
2023-02-25T00:48:01.881Z,10.10
2023-02-25T00:50:29.025Z,9.91
2023-02-25T00:52:55.845Z,9.89
2023-02-25T00:55:22.768Z,9.41
2023-02-25T00:58:09.838Z,9.88
2023-02-25T01:01:01.921Z,9.78
2023-02-25T01:03:28.784Z,9.61
2023-02-25T01:05:56.711Z,9.91
2023-02-25T01:08:24.049Z,9.38
2023-02-25T01:10:51.068Z,9.47
2023-02-25T01:13:17.924Z,9.59
2023-02-25T01:16:04.854Z,9.01
2023-02-25T01:19:09.823Z,9.37
2023-02-25T01:22:11.862Z,9.37
2023-02-25T01:24:38.906Z,9.16
2023-02-25T01:27:07.568Z,9.31
2023-02-25T01:29:54.797Z,9.01
2023-02-25T01:32:55.823Z,9.08
2023-02-25T01:35:36.834Z,9.06
2023-02-25T01:38:03.754Z,9.28
2023-02-25T01:40:30.845Z,8.76
2023-02-25T01:43:19.857Z,9.09
2023-02-25T01:46:21.134Z,8.89
2023-02-25T01:49:23.440Z,9.18
2023-02-25T01:51:54.831Z,9.07
2023-02-25T01:54:21.917Z,8.96
2023-02-25T01:56:53.742Z,9.10
2023-02-25T01:59:24.939Z,8.90
2023-02-25T02:01:52.339Z,9.02
2023-02-25T02:04:20.447Z,8.59
2023-02-25T02:07:08.863Z,8.64
2023-02-25T02:09:59.940Z,8.85
2023-02-25T02:12:35.820Z,8.82
2023-02-25T02:15:19.865Z,8.44
2023-02-25T02:18:22.865Z,8.79
2023-02-25T02:21:46.881Z,8.87
2023-02-25T02:24:43.402Z,8.81
2023-02-25T02:27:14.421Z,8.71
2023-02-25T02:29:50.318Z,8.70
2023-02-25T02:32:33.292Z,8.35
2023-02-25T02:35:00.344Z,8.55
2023-02-25T02:37:40.340Z,8.13
2023-02-25T02:40:16.647Z,8.48
2023-02-25T02:43:04.926Z,8.43
2023-02-25T02:45:43.990Z,8.41
2023-02-25T02:48:23.237Z,8.25
2023-02-25T02:51:13.843Z,8.00
2023-02-25T02:54:19.856Z,8.07
2023-02-25T02:57:02.043Z,7.62
2023-02-25T02:59:59.862Z,7.84
2023-02-25T03:02:43.962Z,7.94
2023-02-25T03:05:16.786Z,7.69
2023-02-25T03:08:00.265Z,7.66
2023-02-25T03:10:27.665Z,7.16
2023-02-25T03:12:55.948Z,7.56
2023-02-25T03:15:25.977Z,7.43
2023-02-25T03:18:18.909Z,7.42
2023-02-25T03:21:55.886Z,7.42
2023-02-25T03:25:08.893Z,7.56
2023-02-25T03:27:56.334Z,7.49
2023-02-25T03:30:53.955Z,7.44
2023-02-25T03:33:54.887Z,7.40
2023-02-25T03:36:42.854Z,7.44
2023-02-25T03:39:33.903Z,7.36
2023-02-25T03:42:20.693Z,7.14
2023-02-25T03:44:57.953Z,6.93
2023-02-25T03:47:48.915Z,7.35
2023-02-25T03:50:33.844Z,7.17
2023-02-25T03:53:05.232Z,7.03
2023-02-25T03:55:48.314Z,6.96
2023-02-25T03:58:34.904Z,6.93
2023-02-25T04:01:40.890Z,7.27
2023-02-25T04:04:41.944Z,7.34
2023-02-25T04:07:22.476Z,7.48
2023-02-25T04:09:49.462Z,7.01
2023-02-25T04:12:16.386Z,7.24
2023-02-25T04:14:44.103Z,7.07
2023-02-25T04:17:30.922Z,7.13
2023-02-25T04:20:25.002Z,7.20
2023-02-25T04:23:05.452Z,6.84
2023-02-25T04:25:32.472Z,6.82
2023-02-25T04:27:59.667Z,6.84
2023-02-25T04:30:26.623Z,6.79
2023-02-25T04:32:53.760Z,6.57
2023-02-25T04:35:40.929Z,6.80
2023-02-25T04:38:21.649Z,6.58
2023-02-25T04:40:51.697Z,6.63
2023-02-25T04:43:18.578Z,6.57
2023-02-25T04:45:46.555Z,6.61
2023-02-25T04:48:13.508Z,6.63
2023-02-25T04:50:41.275Z,6.46
2023-02-25T04:53:08.121Z,5.99
2023-02-25T04:55:36.633Z,6.43
2023-02-25T04:58:03.668Z,6.51
2023-02-25T05:00:30.568Z,6.31
2023-02-25T05:02:58.601Z,6.27
2023-02-25T05:05:45.935Z,6.54
2023-02-25T05:08:47.949Z,6.88
2023-02-25T05:11:48.951Z,6.99
2023-02-25T05:14:39.761Z,7.26
2023-02-25T05:17:26.951Z,7.26
2023-02-25T05:20:28.117Z,7.08
2023-02-25T05:23:10.911Z,7.02
2023-02-25T05:25:41.290Z,6.98
2023-02-25T05:28:09.617Z,6.91
2023-02-25T05:30:38.500Z,7.22
2023-02-25T05:33:07.201Z,7.13
2023-02-25T05:35:34.089Z,6.83
2023-02-25T05:38:20.960Z,6.87
2023-02-25T05:41:01.728Z,6.90
2023-02-25T05:43:28.764Z,6.84
2023-02-25T05:45:57.768Z,6.70
2023-02-25T05:48:24.784Z,6.22
2023-02-25T05:50:52.378Z,6.46
2023-02-25T05:53:19.950Z,6.34
2023-02-25T05:55:47.264Z,5.94
2023-02-25T05:58:14.457Z,5.94
2023-02-25T06:00:41.641Z,6.08
2023-02-25T06:03:08.559Z,5.97
2023-02-25T06:05:40.182Z,6.27
2023-02-25T06:08:19.968Z,6.22
2023-02-25T06:11:21.979Z,6.41
2023-02-25T06:14:04.515Z,6.11
2023-02-25T06:16:53.080Z,5.63
2023-02-25T06:19:53.989Z,6.05
2023-02-25T06:22:34.562Z,5.98
2023-02-25T06:25:01.826Z,5.97
2023-02-25T06:27:31.203Z,5.99
2023-02-25T06:30:00.282Z,6.01
2023-02-25T06:32:27.422Z,6.17
2023-02-25T06:34:54.301Z,6.39
2023-02-25T06:37:21.505Z,6.57
2023-02-25T06:39:48.464Z,6.60
2023-02-25T06:42:36.010Z,6.83
2023-02-25T06:45:16.958Z,7.05
2023-02-25T06:47:43.849Z,6.91
2023-02-25T06:50:11.974Z,6.88
2023-02-25T06:52:38.838Z,6.72
2023-02-25T06:55:06.854Z,7.06
2023-02-25T06:57:34.909Z,7.24
2023-02-25T07:00:02.393Z,7.55
2023-02-25T07:02:29.366Z,7.34
2023-02-25T07:04:56.471Z,7.63
2023-02-25T07:07:23.761Z,7.38
2023-02-25T07:10:10.995Z,7.38
2023-02-25T07:13:12.012Z,7.78
2023-02-25T07:16:13.097Z,7.92
2023-02-25T07:19:07.151Z,7.76
2023-02-25T07:22:01.024Z,7.82
2023-02-25T07:24:42.160Z,8.40
2023-02-25T07:27:09.839Z,8.53
2023-02-25T07:29:36.746Z,8.43
2023-02-25T07:32:03.893Z,8.87
2023-02-25T07:34:31.040Z,8.80
2023-02-25T07:36:58.152Z,8.86
2023-02-25T07:39:47.405Z,9.09
2023-02-25T07:42:29.052Z,9.00
2023-02-25T07:45:02.041Z,9.20
2023-02-25T07:47:31.175Z,9.47
2023-02-25T07:49:58.056Z,9.73
2023-02-25T07:52:25.049Z,9.73
2023-02-25T07:54:51.910Z,9.61
2023-02-25T07:57:18.819Z,10.03
2023-02-25T07:59:46.211Z,9.87
2023-02-25T08:02:13.237Z,10.14
2023-02-25T08:04:40.675Z,9.97
2023-02-25T08:07:07.675Z,10.22
2023-02-25T08:09:34.681Z,10.18
2023-02-25T08:12:02.036Z,10.29
2023-02-25T08:14:29.024Z,10.47
2023-02-25T08:17:16.050Z,10.52
2023-02-25T08:20:18.086Z,10.80
2023-02-25T08:23:13.404Z,10.82
2023-02-25T08:25:55.370Z,10.71
2023-02-25T08:28:23.558Z,10.89
2023-02-25T08:30:51.120Z,10.68
2023-02-25T08:33:18.344Z,10.52
2023-02-25T08:35:45.339Z,10.68
2023-02-25T08:38:13.094Z,10.87
2023-02-25T08:40:40.698Z,11.51
2023-02-25T08:43:08.980Z,11.74
2023-02-25T08:45:38.586Z,12.01
2023-02-25T08:48:05.608Z,11.84
2023-02-25T08:50:32.553Z,12.62
2023-02-25T08:52:59.442Z,12.46
2023-02-25T08:55:26.352Z,12.35
2023-02-25T08:58:13.087Z,12.05
2023-02-25T09:01:10.845Z,12.60
2023-02-25T09:03:37.741Z,12.93
2023-02-25T09:06:04.901Z,12.45
2023-02-25T09:08:33.384Z,12.55
2023-02-25T09:11:00.419Z,12.67
2023-02-25T09:13:27.377Z,12.64
2023-02-25T09:16:14.210Z,13.09
2023-02-25T09:19:15.102Z,13.07
2023-02-25T09:21:55.741Z,13.01
2023-02-25T09:24:22.702Z,13.01
2023-02-25T09:26:50.024Z,13.08
2023-02-25T09:29:17.480Z,12.93
2023-02-25T09:32:04.158Z,12.93
2023-02-25T09:35:05.124Z,13.41
2023-02-25T09:37:45.727Z,13.06
2023-02-25T09:40:18.833Z,13.07
2023-02-25T09:43:26.200Z,13.11
2023-02-25T09:45:55.627Z,13.77
2023-02-25T09:48:30.761Z,13.63
2023-02-25T09:51:07.406Z,13.61
2023-02-25T09:53:41.714Z,13.73
2023-02-25T09:56:13.105Z,13.34
2023-02-25T09:58:46.169Z,13.35
2023-02-25T10:01:24.320Z,13.22
2023-02-25T10:04:14.525Z,12.99
2023-02-25T10:07:03.125Z,12.84
2023-02-25T10:09:54.551Z,13.85
2023-02-25T10:12:54.204Z,14.17
2023-02-25T10:15:24.115Z,14.99
2023-02-25T10:18:43.125Z,14.35
2023-02-25T10:22:17.326Z,14.68
2023-02-25T10:25:11.183Z,14.82
2023-02-25T10:28:16.111Z,14.48
2023-02-25T10:31:12.570Z,15.07
2023-02-25T10:33:41.334Z,14.52
2023-02-25T10:36:32.121Z,14.67
2023-02-25T10:38:59.749Z,15.55
2023-02-25T10:41:27.146Z,15.13
2023-02-25T10:43:55.548Z,15.67
2023-02-25T10:46:50.148Z,16.30
2023-02-25T10:49:26.422Z,15.29
2023-02-25T10:52:19.137Z,14.38
2023-02-25T10:54:59.684Z,15.20
2023-02-25T10:57:33.808Z,14.53
2023-02-25T11:00:05.125Z,15.11
2023-02-25T11:02:41.019Z,15.93
2023-02-25T11:05:52.133Z,16.03
2023-02-25T11:08:33.399Z,15.45
2023-02-25T11:11:24.047Z,14.63
2023-02-25T11:14:16.022Z,14.18
2023-02-25T11:17:03.175Z,14.12
2023-02-25T11:20:15.140Z,14.45
2023-02-25T11:22:57.413Z,15.03
2023-02-25T11:25:36.990Z,15.89
2023-02-25T11:28:05.430Z,15.72
2023-02-25T11:30:53.299Z,14.77
2023-02-25T11:34:06.157Z,14.85
2023-02-25T11:36:49.410Z,14.65
2023-02-25T11:39:21.803Z,14.61
2023-02-25T11:41:55.145Z,15.17
2023-02-25T11:44:31.854Z,15.24
2023-02-25T11:47:04.496Z,14.32
2023-02-25T11:49:52.941Z,15.14
2023-02-25T11:52:32.991Z,15.31
2023-02-25T11:55:36.829Z,14.93
2023-02-25T11:58:33.134Z,15.11
2023-02-25T12:01:33.631Z,15.07
2023-02-25T12:04:25.181Z,14.97
2023-02-25T12:07:28.162Z,15.39
2023-02-25T12:10:07.346Z,15.31
2023-02-25T12:12:53.295Z,15.52
2023-02-25T12:16:05.209Z,15.58
2023-02-25T12:19:30.180Z,14.90
2023-02-25T12:22:38.802Z,15.65
2023-02-25T12:25:33.930Z,15.60
2023-02-25T12:28:26.249Z,15.09
2023-02-25T12:31:12.444Z,14.99
2023-02-25T12:34:04.393Z,15.27
2023-02-25T12:36:33.924Z,15.23
2023-02-25T12:39:32.492Z,15.44
2023-02-25T12:42:11.642Z,14.87
2023-02-25T12:45:17.221Z,14.18
2023-02-25T12:48:44.226Z,14.87
2023-02-25T12:51:59.209Z,14.93
2023-02-25T12:55:20.148Z,14.94
2023-02-25T12:58:09.849Z,14.93
2023-02-25T13:00:55.914Z,15.08
2023-02-25T13:03:35.022Z,15.13
2023-02-25T13:06:47.464Z,15.32
2023-02-25T13:09:32.886Z,15.37
2023-02-25T13:12:11.774Z,15.11
2023-02-25T13:14:45.138Z,15.24
2023-02-25T13:17:34.598Z,15.49
2023-02-25T13:21:04.257Z,15.15
2023-02-25T13:23:44.844Z,15.26
2023-02-25T13:26:50.148Z,15.18
2023-02-25T13:29:19.953Z,15.41
2023-02-25T13:32:06.002Z,15.57
2023-02-25T13:35:11.235Z,15.74
2023-02-25T13:38:06.127Z,15.73
2023-02-25T13:40:49.753Z,15.24
2023-02-25T13:43:55.264Z,15.76
2023-02-25T13:47:15.260Z,16.06
2023-02-25T13:50:14.184Z,16.07
2023-02-25T13:53:39.252Z,15.81
2023-02-25T13:56:50.258Z,15.84
2023-02-25T14:00:03.244Z,15.85
2023-02-25T14:03:05.113Z,15.73
2023-02-25T14:06:02.104Z,15.55
2023-02-25T14:08:57.231Z,15.86
2023-02-25T14:11:51.328Z,15.84
2023-02-25T14:14:39.673Z,16.08
2023-02-25T14:17:35.264Z,15.60
2023-02-25T14:20:40.001Z,15.74
2023-02-25T14:23:16.741Z,15.80
2023-02-25T14:26:20.330Z,16.00
2023-02-25T14:29:13.021Z,15.97
2023-02-25T14:31:52.369Z,15.57
2023-02-25T14:34:44.812Z,15.82
2023-02-25T14:37:51.329Z,15.50
2023-02-25T14:40:48.905Z,15.34
2023-02-25T14:43:49.279Z,15.80
2023-02-25T14:47:04.263Z,15.51
2023-02-25T14:50:12.725Z,15.99
2023-02-25T14:52:59.324Z,15.45
2023-02-25T14:55:55.627Z,15.11
2023-02-25T14:59:31.295Z,15.63
2023-02-25T15:02:41.560Z,15.16
2023-02-25T15:05:34.111Z,15.26
2023-02-25T15:08:52.329Z,15.01
2023-02-25T15:11:56.609Z,15.11
2023-02-25T15:14:32.380Z,15.13
2023-02-25T15:17:27.608Z,14.79
2023-02-25T15:20:21.676Z,14.96
2023-02-25T15:23:12.010Z,15.06
2023-02-25T15:26:25.333Z,14.88
2023-02-25T15:29:17.749Z,14.80
2023-02-25T15:32:28.334Z,15.04
2023-02-25T15:35:35.360Z,15.17
2023-02-25T15:38:57.280Z,14.56
2023-02-25T15:41:59.336Z,14.56
2023-02-25T15:44:56.570Z,14.36
2023-02-25T15:47:25.105Z,14.55
2023-02-25T15:49:53.626Z,14.55
2023-02-25T15:52:52.865Z,14.49
2023-02-25T15:55:35.926Z,14.23
2023-02-25T15:58:22.937Z,14.24
2023-02-25T16:01:10.407Z,14.29
2023-02-25T16:04:11.351Z,13.94
2023-02-25T16:07:05.428Z,14.09
2023-02-25T16:10:03.024Z,14.03
2023-02-25T16:12:30.198Z,14.12
2023-02-25T16:14:58.559Z,14.03
2023-02-25T16:17:51.373Z,13.82
2023-02-25T16:20:46.570Z,13.88
2023-02-25T16:23:35.334Z,13.92
2023-02-25T16:26:39.341Z,13.95
2023-02-25T16:29:49.318Z,13.96
2023-02-25T16:33:11.393Z,13.90
2023-02-25T16:36:30.893Z,13.82
2023-02-25T16:39:30.340Z,13.66
2023-02-25T16:42:32.376Z,13.87
2023-02-25T16:45:58.376Z,13.65
2023-02-25T16:49:01.374Z,13.71
2023-02-25T16:51:45.193Z,13.42
2023-02-25T16:54:29.934Z,13.44
2023-02-25T16:57:02.997Z,13.56
2023-02-25T16:59:35.051Z,13.36
2023-02-25T17:02:19.874Z,13.07
2023-02-25T17:05:09.363Z,13.44
2023-02-25T17:08:15.365Z,13.19
2023-02-25T17:11:20.401Z,13.38
2023-02-25T17:14:05.007Z,13.44
2023-02-25T17:16:38.255Z,13.38
2023-02-25T17:19:23.507Z,13.41
2023-02-25T17:22:17.377Z,12.98
2023-02-25T17:24:58.707Z,13.25
2023-02-25T17:27:26.990Z,13.23
2023-02-25T17:30:16.455Z,12.93
2023-02-25T17:33:00.146Z,13.18
2023-02-25T17:35:28.062Z,12.70
2023-02-25T17:37:56.243Z,12.88
2023-02-25T17:40:43.387Z,13.07
2023-02-25T17:43:52.404Z,13.14
2023-02-25T17:46:39.416Z,12.91
2023-02-25T17:49:20.375Z,12.96
2023-02-25T17:51:53.709Z,12.80
2023-02-25T17:54:24.405Z,12.78
2023-02-25T17:56:59.068Z,12.74
2023-02-25T17:59:39.766Z,12.65
2023-02-25T18:02:37.348Z,12.51
2023-02-25T18:05:10.421Z,12.51
2023-02-25T18:07:40.581Z,12.37
2023-02-25T18:10:33.342Z,12.13
2023-02-25T18:13:02.370Z,12.21
2023-02-25T18:15:33.297Z,11.98
2023-02-25T18:18:21.430Z,11.79
2023-02-25T18:21:25.467Z,11.59
2023-02-25T18:24:51.419Z,11.66
2023-02-25T18:27:52.397Z,11.33
2023-02-25T18:30:33.792Z,11.50
2023-02-25T18:33:20.484Z,11.18
2023-02-25T18:36:25.638Z,11.34
2023-02-25T18:39:26.435Z,11.36
2023-02-25T18:42:12.970Z,11.46
2023-02-25T18:45:01.474Z,11.40
2023-02-25T18:48:09.437Z,11.19
2023-02-25T18:50:50.051Z,10.96
2023-02-25T18:53:38.432Z,11.09
2023-02-25T18:56:19.119Z,10.63
2023-02-25T18:58:46.259Z,10.99
2023-02-25T19:01:23.980Z,10.59
2023-02-25T19:03:51.555Z,10.60
2023-02-25T19:06:18.649Z,10.49
2023-02-25T19:09:06.324Z,10.35
2023-02-25T19:11:47.226Z,10.53
2023-02-25T19:14:18.341Z,10.81
2023-02-25T19:16:45.275Z,11.00
2023-02-25T19:19:33.446Z,10.81
2023-02-25T19:22:15.842Z,11.11
2023-02-25T19:24:45.589Z,10.90
2023-02-25T19:27:30.649Z,10.90
2023-02-25T19:30:17.468Z,11.27
2023-02-25T19:33:18.455Z,11.16
2023-02-25T19:35:59.094Z,11.08
2023-02-25T19:38:26.127Z,10.91
2023-02-25T19:41:19.435Z,11.36
2023-02-25T19:44:20.501Z,11.44
2023-02-25T19:47:21.445Z,11.26
2023-02-25T19:50:18.397Z,11.36
2023-02-25T19:53:08.459Z,11.49
2023-02-25T19:56:10.488Z,11.49
2023-02-25T19:58:55.749Z,11.16
2023-02-25T20:01:22.670Z,11.26
2023-02-25T20:03:51.207Z,11.12
2023-02-25T20:06:20.348Z,11.41
2023-02-25T20:08:52.594Z,11.33
2023-02-25T20:11:20.214Z,11.23
2023-02-25T20:13:48.047Z,10.88
2023-02-25T20:16:15.264Z,10.64
2023-02-25T20:19:04.530Z,11.04
2023-02-25T20:21:45.040Z,10.90
2023-02-25T20:24:32.514Z,10.75
2023-02-25T20:27:24.735Z,10.59
2023-02-25T20:29:51.637Z,10.48
2023-02-25T20:32:38.641Z,10.72
2023-02-25T20:35:39.530Z,10.60
2023-02-25T20:38:39.877Z,10.48
2023-02-25T20:41:28.498Z,10.33
2023-02-25T20:44:09.672Z,9.90
2023-02-25T20:46:57.502Z,10.45
2023-02-25T20:49:40.250Z,10.20
2023-02-25T20:52:28.476Z,10.01
2023-02-25T20:55:09.720Z,10.16
2023-02-25T20:57:56.609Z,9.97
2023-02-25T21:00:57.554Z,10.01
2023-02-25T21:03:39.409Z,9.96
2023-02-25T21:06:06.816Z,9.69
2023-02-25T21:08:35.087Z,9.59
2023-02-25T21:11:02.045Z,10.05
2023-02-25T21:13:29.117Z,10.23
2023-02-25T21:16:00.859Z,10.44
2023-02-25T21:18:48.536Z,10.22
2023-02-25T21:21:49.549Z,10.06
2023-02-25T21:24:33.574Z,10.21
2023-02-25T21:27:01.801Z,9.74
2023-02-25T21:29:28.833Z,10.38
2023-02-25T21:31:55.901Z,10.00
2023-02-25T21:34:22.896Z,10.15
2023-02-25T21:36:49.924Z,10.15
2023-02-25T21:39:36.568Z,9.97
2023-02-25T21:42:37.554Z,10.01
2023-02-25T21:45:19.085Z,9.84
2023-02-25T21:47:46.006Z,9.87
2023-02-25T21:50:13.434Z,10.03
2023-02-25T21:53:00.646Z,10.32
2023-02-25T21:55:41.276Z,10.26
2023-02-25T21:58:08.141Z,10.39
2023-02-25T22:00:35.149Z,10.39
2023-02-25T22:03:02.291Z,10.69
2023-02-25T22:05:29.685Z,10.68
2023-02-25T22:07:56.961Z,10.65
2023-02-25T22:10:24.400Z,10.54
2023-02-25T22:12:51.441Z,10.67
2023-02-25T22:15:38.630Z,10.51
2023-02-25T22:18:39.548Z,10.88
2023-02-25T22:21:23.098Z,10.75
2023-02-25T22:23:51.397Z,10.70
2023-02-25T22:26:21.890Z,10.78
2023-02-25T22:28:49.089Z,10.66
2023-02-25T22:31:17.760Z,10.99
2023-02-25T22:33:45.829Z,10.53
2023-02-25T22:36:14.508Z,11.08
2023-02-25T22:38:42.862Z,11.12
2023-02-25T22:41:41.547Z,10.93
2023-02-25T22:44:42.573Z,10.90
2023-02-25T22:47:23.118Z,11.01
2023-02-25T22:49:49.934Z,10.76
2023-02-25T22:52:16.956Z,10.92
2023-02-25T22:54:43.814Z,10.49
2023-02-25T22:57:10.744Z,10.71
2023-02-25T22:59:57.588Z,10.96
2023-02-25T23:02:49.060Z,10.63
2023-02-25T23:05:16.135Z,11.12
2023-02-25T23:07:44.181Z,11.12
2023-02-25T23:10:11.546Z,11.04
2023-02-25T23:12:39.905Z,10.93
2023-02-25T23:15:09.261Z,11.00
2023-02-25T23:17:56.584Z,11.08
2023-02-25T23:20:38.576Z,11.12
2023-02-25T23:23:07.299Z,10.88
2023-02-25T23:25:37.860Z,10.61
2023-02-25T23:28:07.131Z,11.34
2023-02-25T23:30:54.601Z,11.04
2023-02-25T23:33:35.116Z,11.04
2023-02-25T23:36:05.090Z,11.09
2023-02-25T23:38:32.013Z,10.96
2023-02-25T23:41:19.582Z,11.05
2023-02-25T23:44:03.659Z,10.85
2023-02-25T23:46:31.755Z,10.93
2023-02-25T23:49:01.542Z,10.85
2023-02-25T23:51:29.366Z,10.78
2023-02-25T23:54:18.570Z,10.79
2023-02-25T23:57:19.637Z,10.65
